Time;durP1;ratioP1;P1;durP2;ratioP2;P2;SDS_P1;SDS_P2;PMS_P1;PMS_P2;Temp;Humidity;BMP_temperature;BMP_pressure;BME280_temperature;BME280_humidity;BME280_pressure;Samples;Min_cycle;Max_cycle;Signal;HPM_P1;HPM_P2
2021/01/24 00:02:05;;;;;;;20.17;16.30;;;3.00;99.90;;;;;;6292493;22;20249;-84
2021/01/24 00:04:32;;;;;;;18.90;15.27;;;3.00;99.90;;;;;;6271443;22;20189;-83
2021/01/24 00:10:22;;;;;;;15.90;14.30;;;3.00;99.90;;;;;;6287163;22;20193;-79
2021/01/24 00:12:49;;;;;;;17.07;14.23;;;3.00;99.90;;;;;;6275836;22;20194;-77
2021/01/24 00:15:16;;;;;;;16.63;13.65;;;2.90;99.90;;;;;;6275270;22;20210;-76
2021/01/24 00:17:42;;;;;;;19.00;15.27;;;3.00;99.90;;;;;;6272846;22;20531;-74
2021/01/24 00:20:10;;;;;;;18.35;15.27;;;3.00;99.90;;;;;;6246988;22;20507;-74
2021/01/24 00:22:37;;;;;;;18.80;15.90;;;3.00;99.90;;;;;;6274799;22;20236;-74
2021/01/24 00:25:05;;;;;;;19.83;17.70;;;3.00;99.90;;;;;;6282569;22;20186;-83
2021/01/24 00:27:33;;;;;;;24.23;17.77;;;3.00;99.90;;;;;;6295379;22;20184;-83
2021/01/24 00:30:01;;;;;;;19.27;15.70;;;2.90;99.90;;;;;;6300547;22;20201;-84
2021/01/24 00:32:31;;;;;;;16.38;14.27;;;2.90;99.90;;;;;;6301386;22;20268;-84
2021/01/24 00:35:18;;;;;;;21.25;14.98;;;3.00;99.90;;;;;;6298498;22;20153;-84
2021/01/24 00:37:53;;;;;;;16.53;13.93;;;2.80;99.90;;;;;;6235845;22;20273;-85
2021/01/24 00:40:21;;;;;;;16.80;14.30;;;2.90;99.90;;;;;;6280461;22;20212;-84
2021/01/24 00:42:49;;;;;;;16.27;14.03;;;2.90;99.90;;;;;;6302233;22;20177;-85
2021/01/24 00:45:18;;;;;;;17.13;13.73;;;3.00;99.90;;;;;;6294883;22;20201;-85
2021/01/24 00:47:45;;;;;;;17.23;14.93;;;3.00;99.90;;;;;;6289891;22;20202;-85
2021/01/24 00:50:47;;;;;;;16.20;14.47;;;3.00;99.90;;;;;;6292270;22;20525;-86
2021/01/24 00:53:17;;;;;;;17.45;13.88;;;3.00;99.90;;;;;;6251920;22;20269;-84
2021/01/24 00:56:04;;;;;;;17.50;14.83;;;3.10;99.90;;;;;;6252413;22;20285;-84
2021/01/24 00:58:53;;;;;;;19.40;15.10;;;3.00;99.90;;;;;;6274486;22;20223;-84
2021/01/24 01:01:20;;;;;;;16.87;14.30;;;3.00;99.90;;;;;;6281681;22;20174;-84
2021/01/24 01:04:22;;;;;;;16.40;14.07;;;3.10;99.90;;;;;;6284001;22;20174;-83
2021/01/24 01:10:01;;;;;;;24.47;13.93;;;3.10;99.90;;;;;;6259237;22;20615;-84
2021/01/24 01:16:51;;;;;;;16.73;13.13;;;3.20;99.90;;;;;;6228731;22;20313;-85
2021/01/24 01:19:53;;;;;;;16.48;13.77;;;3.00;99.90;;;;;;6250155;23;20206;-84
2021/01/24 01:22:20;;;;;;;18.37;14.00;;;3.20;99.90;;;;;;6248166;23;20186;-83
2021/01/24 01:25:18;;;;;;;18.13;14.15;;;3.20;99.90;;;;;;6249247;23;20187;-83
2021/01/24 01:27:59;;;;;;;16.97;13.93;;;3.20;99.90;;;;;;6220596;23;20520;-84
2021/01/24 01:30:39;;;;;;;15.13;13.17;;;3.30;99.90;;;;;;6221052;23;20209;-85
2021/01/24 01:33:19;;;;;;;16.57;13.93;;;3.20;99.90;;;;;;6245780;23;20187;-83
2021/01/24 01:35:49;;;;;;;16.07;13.70;;;3.20;99.90;;;;;;6197303;23;20269;-82
2021/01/24 01:38:18;;;;;;;16.17;13.77;;;3.20;99.90;;;;;;6196602;23;20625;-83
2021/01/24 01:41:16;;;;;;;15.40;13.63;;;3.20;99.90;;;;;;6217514;23;20403;-83
2021/01/24 01:44:09;;;;;;;16.03;14.03;;;3.20;99.90;;;;;;6220981;23;20207;-84
2021/01/24 01:46:39;;;;;;;17.73;13.77;;;3.00;99.90;;;;;;6197154;23;20195;-83
2021/01/24 01:49:07;;;;;;;19.27;15.63;;;3.10;99.90;;;;;;6199600;23;20191;-83
2021/01/24 01:51:35;;;;;;;20.47;15.17;;;3.20;99.90;;;;;;6263002;23;20210;-83
2021/01/24 01:54:01;;;;;;;15.60;13.93;;;3.20;99.90;;;;;;6240248;23;20178;-83
2021/01/24 01:56:28;;;;;;;15.67;13.90;;;3.10;99.90;;;;;;6234478;23;20199;-83
2021/01/24 01:58:55;;;;;;;17.57;14.40;;;3.20;99.90;;;;;;6215925;23;20543;-83
2021/01/24 02:01:31;;;;;;;15.73;14.00;;;3.10;99.90;;;;;;6216207;23;20187;-83
2021/01/24 02:04:08;;;;;;;15.88;13.30;;;3.20;99.90;;;;;;6191175;23;20560;-83
2021/01/24 02:06:47;;;;;;;17.40;14.93;;;3.20;99.90;;;;;;6190996;23;20648;-84
2021/01/24 02:09:21;;;;;;;18.53;13.80;;;3.20;99.90;;;;;;6191046;23;20195;-83
2021/01/24 02:11:55;;;;;;;16.33;13.57;;;3.20;99.90;;;;;;6216113;23;20217;-84
2021/01/24 02:14:28;;;;;;;15.93;13.93;;;3.20;99.90;;;;;;6215501;23;20187;-83
2021/01/24 02:16:57;;;;;;;20.80;13.93;;;3.20;99.90;;;;;;6216290;23;20187;-83
2021/01/24 02:19:38;;;;;;;16.17;13.40;;;3.20;99.90;;;;;;6216402;23;20573;-83
2021/01/24 02:22:07;;;;;;;15.03;12.97;;;3.30;99.90;;;;;;6192382;23;20217;-83
2021/01/24 02:24:39;;;;;;;18.27;12.70;;;3.20;99.90;;;;;;6192972;23;20187;-83
2021/01/24 02:27:12;;;;;;;17.87;13.67;;;3.20;99.90;;;;;;6218640;23;20252;-83
2021/01/24 10:39:54;;;;;;;29.30;23.47;;;3.00;99.90;;;;;;6148378;23;20191;-87
2021/01/24 10:42:22;;;;;;;29.67;23.60;;;2.90;99.90;;;;;;6209232;23;20644;-87
2021/01/24 10:44:49;;;;;;;33.13;26.70;;;3.00;99.90;;;;;;6216770;23;20191;-87
2021/01/24 10:47:17;;;;;;;31.70;26.92;;;3.10;99.90;;;;;;6218558;23;20191;-87
2021/01/24 10:49:46;;;;;;;36.37;26.00;;;3.10;99.90;;;;;;6224137;23;20202;-87
2021/01/24 10:52:16;;;;;;;29.45;25.02;;;3.10;99.90;;;;;;6205412;23;20194;-87
2021/01/24 10:54:47;;;;;;;37.17;27.77;;;3.20;99.90;;;;;;6182961;23;20202;-87
2021/01/24 10:57:18;;;;;;;32.93;26.63;;;3.00;99.90;;;;;;6222795;23;20195;-87
2021/01/24 10:59:51;;;;;;;35.90;28.52;;;3.20;99.90;;;;;;6194698;23;20211;-87
2021/01/24 11:02:18;;;;;;;49.80;34.07;;;3.00;99.90;;;;;;6224463;23;20195;-86
2021/01/24 11:04:51;;;;;;;32.17;26.73;;;3.20;99.90;;;;;;6222200;23;20190;-87
2021/01/24 11:07:21;;;;;;;32.30;26.43;;;3.30;99.90;;;;;;6230890;23;20191;-86
2021/01/24 11:09:49;;;;;;;39.17;26.40;;;3.40;99.90;;;;;;6226098;23;20191;-86
2021/01/24 11:12:18;;;;;;;40.35;30.63;;;3.30;99.90;;;;;;6243735;23;20206;-88
2021/01/24 11:14:46;;;;;;;44.13;30.63;;;3.40;99.90;;;;;;6217122;23;20648;-87
2021/01/24 11:17:14;;;;;;;31.05;25.60;;;3.60;99.90;;;;;;6218369;23;20191;-87
2021/01/24 11:19:51;;;;;;;33.90;26.10;;;3.40;99.90;;;;;;6215848;23;20184;-87
2021/01/24 11:22:20;;;;;;;46.47;41.63;;;3.50;99.90;;;;;;6218699;23;20187;-86
2021/01/24 11:24:47;;;;;;;33.07;25.27;;;3.60;99.90;;;;;;6214932;23;20627;-87
2021/01/24 11:27:15;;;;;;;30.40;23.70;;;3.50;99.90;;;;;;6219887;23;20198;-87
2021/01/24 11:29:43;;;;;;;31.08;24.08;;;3.50;99.90;;;;;;6216856;23;20266;-88
2021/01/24 11:32:11;;;;;;;29.20;23.13;;;3.50;99.90;;;;;;6192132;23;20179;-88
2021/01/24 11:34:40;;;;;;;30.53;24.67;;;3.50;99.90;;;;;;6218962;23;20633;-88
2021/01/24 11:37:08;;;;;;;29.47;24.83;;;3.60;99.90;;;;;;6191288;23;20202;-86
2021/01/24 11:39:35;;;;;;;27.53;22.30;;;3.80;99.90;;;;;;6212163;23;20243;-86
2021/01/24 11:42:04;;;;;;;35.13;24.00;;;3.80;99.90;;;;;;6220212;23;20199;-86
2021/01/24 11:44:31;;;;;;;33.33;25.70;;;3.70;99.90;;;;;;6217509;23;20581;-86
2021/01/24 11:46:58;;;;;;;38.13;27.33;;;3.90;99.90;;;;;;6229625;23;20195;-86
2021/01/24 11:49:26;;;;;;;30.30;24.77;;;4.10;99.90;;;;;;6240491;23;20189;-86
2021/01/24 11:51:52;;;;;;;30.60;24.27;;;4.00;99.90;;;;;;6226933;23;20210;-86
2021/01/24 11:54:19;;;;;;;35.10;25.97;;;4.00;99.90;;;;;;6245022;23;20187;-86
2021/01/24 11:56:47;;;;;;;29.30;22.37;;;4.10;99.90;;;;;;6196912;23;20195;-86
2021/01/24 11:59:14;;;;;;;33.40;24.53;;;4.10;99.90;;;;;;6223665;23;20183;-86
2021/01/24 12:01:41;;;;;;;30.23;25.53;;;3.80;99.90;;;;;;6223114;23;20190;-86
2021/01/24 12:04:08;;;;;;;33.83;25.13;;;3.70;99.90;;;;;;6220591;23;20198;-86
2021/01/24 12:06:36;;;;;;;32.28;27.00;;;3.70;99.90;;;;;;6218395;23;20187;-86
2021/01/24 12:09:03;;;;;;;29.70;25.43;;;3.80;99.90;;;;;;6219527;23;20191;-86
2021/01/24 12:11:31;;;;;;;32.35;27.27;;;3.80;99.90;;;;;;6192673;23;20430;-86
2021/01/24 12:13:58;;;;;;;32.20;26.30;;;4.00;99.90;;;;;;6218554;23;20183;-87
2021/01/24 12:16:36;;;;;;;32.03;27.03;;;4.20;99.90;;;;;;6194029;23;20667;-86
2021/01/24 12:19:03;;;;;;;28.33;23.80;;;4.30;99.90;;;;;;6225503;23;20206;-85
2021/01/24 12:21:30;;;;;;;29.08;25.88;;;4.70;99.90;;;;;;6215007;23;20221;-79
2021/01/24 12:23:58;;;;;;;34.80;26.10;;;4.80;99.90;;;;;;6215481;23;20192;-78
2021/01/24 12:26:25;;;;;;;30.70;25.60;;;4.50;99.90;;;;;;6212695;23;20199;-78
2021/01/24 12:28:53;;;;;;;31.17;25.93;;;4.50;99.90;;;;;;6215249;23;20211;-78
2021/01/24 12:31:24;;;;;;;31.43;25.90;;;4.30;99.90;;;;;;6187222;23;20191;-78
2021/01/24 12:33:51;;;;;;;34.03;25.93;;;4.20;99.90;;;;;;6192640;23;20199;-78
2021/01/24 12:36:18;;;;;;;31.10;26.07;;;4.10;99.90;;;;;;6217506;23;20640;-78
2021/01/24 12:38:45;;;;;;;30.63;26.15;;;4.10;99.90;;;;;;6212755;23;20187;-77
2021/01/24 12:41:13;;;;;;;32.40;26.00;;;4.00;99.90;;;;;;6187509;23;20195;-78
2021/01/24 12:43:40;;;;;;;34.30;28.40;;;3.90;99.90;;;;;;6213515;23;20193;-78
2021/01/24 12:46:08;;;;;;;37.30;28.47;;;3.90;99.90;;;;;;6212518;23;20199;-78
2021/01/24 12:48:35;;;;;;;36.47;26.20;;;3.90;99.90;;;;;;6214278;23;20660;-81
2021/01/24 13:07:56;;;;;;;25.80;21.60;;;3.90;99.90;;;;;;6172883;23;20180;-84
2021/01/24 13:10:23;;;;;;;25.93;21.83;;;3.60;99.90;;;;;;6189908;23;20223;-83
2021/01/24 13:12:50;;;;;;;27.15;23.75;;;3.70;99.90;;;;;;6164435;23;20188;-85
2021/01/24 13:15:18;;;;;;;27.30;22.25;;;3.50;99.90;;;;;;6208273;23;20252;-82
2021/01/24 13:17:45;;;;;;;26.60;23.23;;;3.70;99.90;;;;;;6219319;23;20195;-82
2021/01/24 13:20:16;;;;;;;28.83;22.27;;;3.80;99.90;;;;;;6218377;23;20202;-81
2021/01/24 13:22:43;;;;;;;26.48;21.65;;;3.80;99.90;;;;;;6218578;23;20183;-81
2021/01/24 13:25:11;;;;;;;28.33;21.73;;;3.80;99.90;;;;;;6218286;23;20187;-82
2021/01/24 13:27:38;;;;;;;24.47;20.30;;;4.10;99.90;;;;;;6189482;23;20187;-82
2021/01/24 13:30:06;;;;;;;25.70;20.73;;;4.00;99.90;;;;;;6169186;23;20198;-82
2021/01/24 13:32:33;;;;;;;25.23;21.20;;;3.90;99.90;;;;;;6220081;23;20191;-84
2021/01/24 13:35:00;;;;;;;23.37;20.23;;;3.90;99.90;;;;;;6217729;23;20266;-81
2021/01/24 13:37:27;;;;;;;24.73;20.40;;;3.90;99.90;;;;;;6220301;23;20203;-82
2021/01/24 13:39:54;;;;;;;25.13;20.38;;;4.00;99.90;;;;;;6193166;23;20194;-82
2021/01/24 13:42:30;;;;;;;24.73;20.87;;;3.80;99.90;;;;;;6220641;23;20207;-82
2021/01/24 13:45:03;;;;;;;27.30;22.40;;;3.90;99.90;;;;;;6244088;23;20209;-84
2021/01/24 13:47:37;;;;;;;23.10;20.40;;;4.00;99.90;;;;;;6220351;23;20724;-84
2021/01/24 13:50:08;;;;;;;25.50;22.10;;;3.90;99.90;;;;;;6218204;23;20170;-84
2021/01/24 13:52:36;;;;;;;28.90;23.50;;;3.90;99.90;;;;;;6218377;23;20206;-82
2021/01/24 13:55:06;;;;;;;30.97;22.93;;;4.00;99.90;;;;;;6219468;23;20195;-83
2021/01/24 13:57:37;;;;;;;31.17;22.10;;;4.20;99.90;;;;;;6220581;23;20195;-84
2021/01/24 14:00:06;;;;;;;25.13;20.70;;;4.20;99.90;;;;;;6220095;23;20187;-83
2021/01/24 14:02:48;;;;;;;25.37;22.30;;;4.20;99.90;;;;;;6220584;23;20195;-83
2021/01/24 14:05:18;;;;;;;25.93;21.07;;;4.20;99.90;;;;;;6195366;23;20183;-82
2021/01/24 14:07:47;;;;;;;26.70;21.70;;;4.20;99.90;;;;;;6220042;23;20277;-84
2021/01/24 14:10:17;;;;;;;23.85;19.85;;;4.10;99.90;;;;;;6216887;23;20529;-84
2021/01/24 14:12:47;;;;;;;23.57;21.07;;;4.20;99.90;;;;;;6217886;23;20244;-83
2021/01/24 14:15:15;;;;;;;24.77;22.07;;;4.20;99.90;;;;;;6192564;23;20230;-84
2021/01/24 14:17:44;;;;;;;26.17;21.67;;;4.20;99.90;;;;;;6219100;23;20203;-83
2021/01/24 14:20:13;;;;;;;24.20;19.65;;;4.20;99.90;;;;;;6219883;23;20191;-83
2021/01/24 14:22:42;;;;;;;23.77;19.07;;;4.10;99.90;;;;;;6195604;23;20194;-83
2021/01/24 14:25:14;;;;;;;23.97;19.43;;;4.30;99.90;;;;;;6222202;23;20186;-83
2021/01/24 14:27:43;;;;;;;24.87;21.10;;;4.10;99.90;;;;;;6219948;23;20202;-83
2021/01/24 14:30:13;;;;;;;30.70;24.03;;;4.00;99.90;;;;;;6219639;23;20194;-83
2021/01/24 14:32:45;;;;;;;38.00;27.60;;;4.00;99.90;;;;;;6219584;23;20183;-83
2021/01/24 14:35:12;;;;;;;36.30;28.85;;;3.90;99.90;;;;;;6196045;23;20229;-83
2021/01/24 14:37:39;;;;;;;35.70;27.83;;;3.90;99.90;;;;;;6249382;23;20221;-83
2021/01/24 14:40:08;;;;;;;35.67;27.17;;;3.80;99.90;;;;;;6228720;23;20194;-84
2021/01/24 14:42:37;;;;;;;35.03;28.23;;;3.70;99.90;;;;;;6230010;23;20201;-83
2021/01/24 14:45:06;;;;;;;38.90;31.10;;;3.70;99.90;;;;;;6246046;23;20187;-83
2021/01/24 14:47:36;;;;;;;41.37;30.40;;;3.80;99.90;;;;;;6219485;23;20195;-83
2021/01/24 14:50:06;;;;;;;36.57;28.23;;;3.90;99.90;;;;;;6195851;23;20660;-84
2021/01/24 14:52:35;;;;;;;39.67;30.43;;;3.80;99.90;;;;;;6219470;23;20210;-85
2021/01/24 14:55:04;;;;;;;37.53;27.67;;;3.70;99.90;;;;;;6196560;23;20301;-82
2021/01/24 14:57:32;;;;;;;40.40;31.50;;;3.40;99.90;;;;;;6222534;23;20222;-82
2021/01/24 15:00:00;;;;;;;45.60;33.30;;;3.50;99.90;;;;;;6220067;23;20613;-82
2021/01/24 15:02:29;;;;;;;47.23;32.33;;;3.50;99.90;;;;;;6222166;23;20195;-82
2021/01/24 15:04:58;;;;;;;48.67;34.53;;;3.40;99.90;;;;;;6220160;23;20727;-82
2021/01/24 15:07:26;;;;;;;48.45;34.20;;;3.50;99.90;;;;;;6217553;23;20195;-82
2021/01/24 15:09:54;;;;;;;54.10;37.13;;;3.50;99.90;;;;;;6216753;23;20194;-83
2021/01/24 15:12:22;;;;;;;54.67;38.07;;;3.40;99.90;;;;;;6215677;23;20210;-83
2021/01/24 15:14:51;;;;;;;51.87;38.93;;;3.40;99.90;;;;;;6216310;23;20187;-82
2021/01/24 15:17:18;;;;;;;64.93;41.73;;;3.40;99.90;;;;;;6195760;23;20217;-79
2021/01/24 15:19:46;;;;;;;52.73;40.27;;;3.40;99.90;;;;;;6216197;23;20688;-79
2021/01/24 15:22:16;;;;;;;55.30;40.57;;;3.40;99.90;;;;;;6219426;23;20195;-82
2021/01/24 15:24:43;;;;;;;50.53;36.67;;;3.60;99.90;;;;;;6222612;23;20156;-81
2021/01/24 15:27:11;;;;;;;57.00;40.40;;;3.50;99.90;;;;;;6227293;23;20206;-81
2021/01/24 15:29:38;;;;;;;51.77;35.63;;;3.60;99.90;;;;;;6227642;23;20205;-81
2021/01/24 15:32:07;;;;;;;50.43;35.30;;;3.60;99.90;;;;;;6220466;23;20286;-82
2021/01/24 15:34:34;;;;;;;59.90;40.70;;;3.50;99.90;;;;;;6217874;23;20640;-82
2021/01/24 15:37:01;;;;;;;50.37;36.50;;;3.40;99.90;;;;;;6219847;23;20220;-83
2021/01/24 15:39:29;;;;;;;56.43;41.77;;;3.40;99.90;;;;;;6220533;23;20194;-80
2021/01/24 15:41:58;;;;;;;52.53;37.57;;;3.40;99.90;;;;;;6217932;23;20191;-80
2021/01/24 15:44:25;;;;;;;50.87;36.20;;;3.50;99.90;;;;;;6220475;23;20194;-79
2021/01/24 15:46:52;;;;;;;46.23;35.63;;;3.40;99.90;;;;;;6197542;23;20685;-80
2021/01/24 15:49:21;;;;;;;50.07;35.00;;;3.50;99.90;;;;;;6197779;23;20195;-80
2021/01/24 16:02:25;;;;;;;47.30;33.83;;;3.40;99.90;;;;;;6224351;23;20175;-81
2021/01/24 16:04:55;;;;;;;52.97;36.97;;;3.50;99.90;;;;;;6224086;23;20187;-81
2021/01/24 16:07:24;;;;;;;52.10;38.27;;;3.50;99.90;;;;;;6223310;23;20198;-83
2021/01/24 16:13:26;;;;;;;60.20;42.10;;;3.60;99.90;;;;;;6165787;23;20187;-81
2021/01/24 16:16:41;;;;;;;123.73;82.40;;;3.60;99.90;;;;;;6227275;23;20206;-82
2021/01/24 16:20:35;;;;;;;84.43;56.10;;;3.70;99.90;;;;;;6203995;22;20198;-82
2021/01/24 16:23:32;;;;;;;87.03;67.33;;;3.60;99.90;;;;;;6231636;23;20193;-81
2021/01/24 16:26:28;;;;;;;67.03;53.17;;;3.50;99.90;;;;;;6256714;23;20198;-82
2021/01/24 16:29:00;;;;;;;62.33;48.03;;;3.60;99.90;;;;;;6231815;23;20288;-81
2021/01/24 16:31:27;;;;;;;50.17;41.33;;;3.60;99.90;;;;;;6234257;23;20186;-83
2021/01/24 16:33:59;;;;;;;50.80;38.37;;;3.60;99.90;;;;;;6268957;22;20174;-85
2021/01/24 16:36:27;;;;;;;50.77;37.97;;;3.40;99.90;;;;;;6269459;22;20246;-86
2021/01/24 16:39:06;;;;;;;49.33;36.50;;;3.60;99.90;;;;;;6225000;23;20202;-81
2021/01/24 16:41:37;;;;;;;45.33;35.77;;;3.60;99.90;;;;;;6225408;23;20226;-81
2021/01/24 16:44:04;;;;;;;41.43;30.80;;;3.60;99.90;;;;;;6251030;23;20186;-82
2021/01/24 16:46:31;;;;;;;39.35;31.20;;;3.60;99.90;;;;;;6226179;23;20466;-81
2021/01/24 16:48:59;;;;;;;42.03;32.23;;;3.60;99.90;;;;;;6256844;23;20205;-82
2021/01/24 16:52:00;;;;;;;36.20;27.87;;;3.60;99.90;;;;;;6265005;23;20213;-83
2021/01/24 16:54:32;;;;;;;36.13;26.23;;;3.80;99.90;;;;;;6172659;23;20152;-82
2021/01/24 16:57:23;;;;;;;34.73;27.57;;;3.60;99.90;;;;;;6222260;23;20206;-82
2021/01/24 16:59:51;;;;;;;29.67;23.40;;;3.60;99.90;;;;;;6232902;23;20186;-82
2021/01/24 17:02:24;;;;;;;28.93;24.37;;;3.60;99.90;;;;;;6258015;22;20201;-84
2021/01/24 17:04:51;;;;;;;31.50;23.17;;;3.60;99.90;;;;;;6230665;23;20182;-81
2021/01/24 17:07:19;;;;;;;25.73;20.07;;;3.70;99.90;;;;;;6256127;23;20202;-83
2021/01/24 17:09:58;;;;;;;22.17;19.13;;;3.50;99.90;;;;;;6231402;23;20225;-81
2021/01/24 17:12:28;;;;;;;21.17;17.90;;;3.40;99.90;;;;;;6255889;23;20691;-81
2021/01/24 17:14:55;;;;;;;24.83;19.27;;;3.60;99.90;;;;;;6259837;23;20191;-82
2021/01/24 17:17:45;;;;;;;20.97;18.50;;;3.50;99.90;;;;;;6258222;23;20251;-81
2021/01/24 17:20:38;;;;;;;22.83;16.00;;;3.50;99.90;;;;;;6262464;23;20162;-81
2021/01/24 17:23:29;;;;;;;22.53;16.13;;;3.60;99.90;;;;;;6261947;23;20162;-81
2021/01/24 17:26:05;;;;;;;23.73;18.83;;;3.40;99.90;;;;;;6259469;23;20209;-81
2021/01/24 17:28:41;;;;;;;26.97;19.40;;;3.40;99.90;;;;;;6248570;23;20714;-82
2021/01/24 17:31:34;;;;;;;24.00;17.83;;;3.30;99.90;;;;;;6257275;23;20199;-83
2021/01/24 17:34:18;;;;;;;18.90;15.27;;;3.30;99.90;;;;;;6257531;23;20620;-84
2021/01/24 17:36:45;;;;;;;23.20;16.53;;;3.50;99.90;;;;;;6228524;23;20239;-83
2021/01/24 17:46:05;;;;;;;25.40;16.97;;;3.30;99.90;;;;;;6262723;23;20198;-83
2021/01/24 17:48:43;;;;;;;22.40;17.87;;;3.40;99.90;;;;;;6264644;22;20194;-81
2021/01/24 17:51:29;;;;;;;22.80;15.60;;;3.50;99.90;;;;;;6258897;22;20225;-81
2021/01/24 17:53:56;;;;;;;24.80;15.87;;;3.40;99.90;;;;;;6256734;23;20178;-80
2021/01/24 17:56:32;;;;;;;21.80;15.33;;;3.40;99.90;;;;;;6255378;23;20199;-82
2021/01/24 17:59:31;;;;;;;20.53;16.03;;;3.50;99.90;;;;;;6256716;23;20182;-83
2021/01/24 18:01:58;;;;;;;26.13;17.93;;;3.60;99.90;;;;;;6259367;22;20209;-82
2021/01/24 18:04:33;;;;;;;34.60;21.97;;;3.50;99.90;;;;;;6256347;23;20212;-82
2021/01/24 18:07:19;;;;;;;39.93;25.90;;;3.50;99.90;;;;;;6247834;23;20202;-79
2021/01/24 18:09:52;;;;;;;33.80;21.30;;;3.40;99.90;;;;;;6254236;22;20170;-83
2021/01/24 18:12:45;;;;;;;27.17;18.17;;;3.40;99.90;;;;;;6253430;23;20232;-79
2021/01/24 19:41:17;;;;;;;10.77;9.33;;;2.70;99.90;;;;;;6243341;23;20239;-81
2021/01/24 20:21:48;;;;;;;14.27;12.27;;;2.70;99.90;;;;;;5983090;24;20185;-80
2021/01/24 20:38:03;;;;;;;13.63;10.97;;;2.60;99.90;;;;;;5852182;24;20268;-81
2021/01/24 20:41:35;;;;;;;14.40;12.07;;;2.50;99.90;;;;;;5855662;24;20198;-82
2021/01/24 21:07:58;;;;;;;10.20;9.20;;;2.50;99.90;;;;;;6197838;23;20215;-83
2021/01/24 21:10:29;;;;;;;13.90;10.53;;;2.50;99.90;;;;;;6147622;22;20188;-82
2021/01/24 21:12:57;;;;;;;15.57;10.20;;;2.50;99.90;;;;;;6257691;23;20259;-82
2021/01/24 21:15:30;;;;;;;19.77;11.23;;;2.50;99.90;;;;;;6266735;22;20198;-83
2021/01/24 21:17:57;;;;;;;16.87;11.57;;;2.60;99.90;;;;;;6271482;22;20210;-83
2021/01/24 21:20:23;;;;;;;14.67;12.33;;;2.60;99.90;;;;;;6267288;22;20189;-82
2021/01/24 21:22:50;;;;;;;14.93;11.87;;;2.60;99.90;;;;;;6265959;22;20193;-82
2021/01/24 21:25:19;;;;;;;14.13;12.10;;;2.60;99.90;;;;;;6269077;22;20169;-81
2021/01/24 21:27:47;;;;;;;17.33;14.10;;;2.60;99.90;;;;;;6268380;23;20183;-82
2021/01/24 21:30:15;;;;;;;18.23;14.30;;;2.60;99.90;;;;;;6267588;22;20232;-82
2021/01/24 21:32:46;;;;;;;18.83;15.67;;;2.60;99.90;;;;;;6269257;22;20206;-83
2021/01/24 21:35:20;;;;;;;22.10;16.87;;;2.60;99.90;;;;;;6242480;23;20210;-82
2021/01/24 21:37:50;;;;;;;21.10;16.60;;;2.50;99.90;;;;;;6267840;23;20202;-83
2021/01/24 21:40:29;;;;;;;24.10;16.73;;;2.50;99.90;;;;;;6269762;22;20237;-82
2021/01/24 21:43:05;;;;;;;18.97;16.97;;;2.60;99.90;;;;;;6246749;23;20221;-78
2021/01/24 22:05:27;;;;;;;26.40;20.43;;;2.10;99.90;;;;;;6252463;23;20205;-80
2021/01/24 22:07:55;;;;;;;29.13;21.80;;;2.10;99.90;;;;;;6250401;23;20183;-81
2021/01/24 22:10:24;;;;;;;27.00;21.25;;;2.10;99.90;;;;;;6251645;23;20163;-82
